Time;durP1;ratioP1;P1;durP2;ratioP2;P2;SDS_P1;SDS_P2;PMS_P1;PMS_P2;Temp;Humidity;BMP_temperature;BMP_pressure;BME280_temperature;BME280_humidity;BME280_pressure;Samples;Min_cycle;Max_cycle;Signal;HPM_P1;HPM_P2
2023/04/09 00:01:30;;;;;;;;;;;4.80;99.90;;;;;;5097750;28;20340;-56
2023/04/09 00:03:56;;;;;;;;;;;4.80;99.90;;;;;;5097871;28;20003;-56
2023/04/09 00:06:22;;;;;;;;;;;4.80;99.90;;;;;;5097826;28;19916;-56
2023/04/09 00:08:47;;;;;;;;;;;4.80;99.90;;;;;;5097685;28;19922;-56
2023/04/09 00:11:13;;;;;;;;;;;4.90;99.90;;;;;;5097665;28;19955;-56
2023/04/09 00:13:39;;;;;;;;;;;4.90;99.90;;;;;;5097757;28;19961;-56
2023/04/09 00:16:05;;;;;;;;;;;4.80;99.90;;;;;;5097592;28;20006;-56
2023/04/09 00:18:31;;;;;;;;;;;4.80;99.90;;;;;;5097579;28;19995;-56
2023/04/09 00:20:57;;;;;;;;;;;4.80;99.90;;;;;;5097575;28;19964;-56
2023/04/09 00:23:23;;;;;;;;;;;4.80;99.90;;;;;;5097341;28;19912;-56
2023/04/09 00:25:48;;;;;;;;;;;4.70;99.90;;;;;;5097598;28;20572;-56
2023/04/09 00:28:15;;;;;;;;;;;4.70;99.90;;;;;;5097554;28;20385;-56
2023/04/09 00:30:40;;;;;;;;;;;4.80;99.90;;;;;;5097489;28;19915;-56
2023/04/09 00:33:06;;;;;;;;;;;4.80;99.90;;;;;;5079180;28;19916;-56
2023/04/09 00:35:32;;;;;;;;;;;4.80;99.90;;;;;;5079331;28;19923;-56
2023/04/09 00:37:58;;;;;;;;;;;4.80;99.90;;;;;;5079063;28;20380;-56
2023/04/09 00:40:24;;;;;;;;;;;4.70;99.90;;;;;;5097192;28;19958;-56
2023/04/09 00:42:50;;;;;;;;;;;4.80;99.90;;;;;;5097277;28;19916;-56
2023/04/09 00:45:15;;;;;;;;;;;4.70;99.90;;;;;;5097055;28;19918;-56
2023/04/09 00:47:44;;;;;;;;;;;4.70;99.90;;;;;;5097152;28;19999;-56
2023/04/09 00:50:10;;;;;;;;;;;4.70;99.90;;;;;;5097211;28;19915;-56
2023/04/09 00:52:36;;;;;;;;;;;4.70;99.90;;;;;;5096913;28;19916;-56
2023/04/09 00:55:03;;;;;;;;;;;4.70;99.90;;;;;;5096814;28;19931;-56
2023/04/09 00:57:29;;;;;;;;;;;4.70;99.90;;;;;;5097003;28;19916;-56
2023/04/09 00:59:55;;;;;;;;;;;4.70;99.90;;;;;;5078522;28;19913;-56
2023/04/09 01:02:21;;;;;;;;;;;4.90;99.90;;;;;;5096417;28;19908;-56
2023/04/09 01:04:47;;;;;;;;;;;4.90;99.90;;;;;;5078989;28;19925;-56
2023/04/09 01:07:24;;;;;;;;;;;5.00;99.90;;;;;;5096700;28;20281;-56
2023/04/09 01:09:56;;;;;;;;;;;5.10;99.90;;;;;;5078435;28;20005;-56
2023/04/09 01:12:25;;;;;;;;;;;5.20;99.90;;;;;;5096511;28;20392;-56
2023/04/09 01:15:10;;;;;;;;;;;5.10;99.90;;;;;;5096645;28;20381;-56
2023/04/09 01:17:45;;;;;;;;;;;5.00;99.90;;;;;;5078466;28;19967;-56
2023/04/09 01:20:13;;;;;;;;;;;5.00;99.90;;;;;;5096524;28;19966;-56
2023/04/09 01:22:46;;;;;;;;;;;5.00;99.90;;;;;;5078039;28;19920;-56
2023/04/09 01:25:26;;;;;;;;;;;5.10;99.90;;;;;;5078387;28;20319;-56
2023/04/09 01:27:55;;;;;;;;;;;5.20;99.90;;;;;;5078156;28;20254;-56
2023/04/09 01:30:21;;;;;;;;;;;5.20;99.90;;;;;;5096278;28;19913;-56
2023/04/09 01:32:48;;;;;;;;;;;5.20;99.90;;;;;;5078153;28;19916;-56
2023/04/09 01:35:14;;;;;;;;;;;5.20;99.90;;;;;;5096086;28;19915;-56
2023/04/09 01:37:40;;;;;;;;;;;5.20;99.90;;;;;;5096296;28;20003;-56
2023/04/09 01:40:07;;;;;;;;;;;5.20;99.90;;;;;;5096188;28;19912;-56
2023/04/09 01:42:34;;;;;;;;;;;5.20;99.90;;;;;;5095952;28;19920;-56
2023/04/09 01:45:01;;;;;;;;;;;5.10;99.90;;;;;;5096242;28;19969;-56
2023/04/09 01:47:27;;;;;;;;;;;5.10;99.90;;;;;;5077943;28;19912;-56
2023/04/09 01:49:53;;;;;;;;;;;5.20;99.90;;;;;;5095986;28;19912;-56
2023/04/09 01:52:19;;;;;;;;;;;5.10;99.90;;;;;;5095926;28;19927;-56
2023/04/09 01:54:45;;;;;;;;;;;5.20;99.90;;;;;;5095804;28;20065;-56
2023/04/09 01:57:11;;;;;;;;;;;5.20;99.90;;;;;;5077567;28;19959;-56
2023/04/09 01:59:37;;;;;;;;;;;5.20;99.90;;;;;;5077554;28;19983;-56
2023/04/09 02:02:09;;;;;;;;;;;5.20;99.90;;;;;;5077484;28;20010;-56
2023/04/09 02:04:40;;;;;;;;;;;5.20;99.90;;;;;;5095031;28;19913;-56
2023/04/09 02:07:10;;;;;;;;;;;5.20;99.90;;;;;;5095776;28;20387;-56
2023/04/09 02:09:38;;;;;;;;;;;5.20;99.90;;;;;;5096051;28;19919;-56
2023/04/09 02:12:05;;;;;;;;;;;5.30;99.90;;;;;;5096304;28;19965;-56
2023/04/09 02:14:31;;;;;;;;;;;5.40;99.90;;;;;;5078098;28;20319;-56
2023/04/09 02:16:58;;;;;;;;;;;5.30;99.90;;;;;;5096244;28;19913;-56
2023/04/09 02:19:24;;;;;;;;;;;5.30;99.90;;;;;;5077968;28;19919;-56
2023/04/09 02:21:49;;;;;;;;;;;5.30;99.90;;;;;;5096166;28;20003;-56
2023/04/09 02:24:15;;;;;;;;;;;5.30;99.90;;;;;;5096076;28;19912;-56
2023/04/09 02:26:41;;;;;;;;;;;5.30;99.90;;;;;;5096170;28;19908;-56
2023/04/09 02:29:07;;;;;;;;;;;5.20;99.90;;;;;;5096140;28;19965;-56
2023/04/09 02:31:32;;;;;;;;;;;5.10;99.90;;;;;;5095285;28;20490;-56
2023/04/09 02:33:58;;;;;;;;;;;5.10;99.90;;;;;;5077017;28;20370;-56
2023/04/09 02:36:25;;;;;;;;;;;5.10;99.90;;;;;;5077158;28;19912;-56
2023/04/09 02:38:51;;;;;;;;;;;5.10;99.90;;;;;;5095097;28;19990;-56
2023/04/09 02:41:18;;;;;;;;;;;5.10;99.90;;;;;;5076995;28;20006;-56
2023/04/09 02:43:44;;;;;;;;;;;5.20;99.90;;;;;;5095190;28;20022;-56
2023/04/09 02:46:09;;;;;;;;;;;5.20;99.90;;;;;;5076842;28;19919;-56
2023/04/09 02:48:35;;;;;;;;;;;5.20;99.90;;;;;;5095274;28;20419;-56
2023/04/09 02:51:04;;;;;;;;;;;5.20;99.90;;;;;;5077111;28;20425;-56
2023/04/09 02:53:29;;;;;;;;;;;5.30;99.90;;;;;;5076753;28;19916;-56
2023/04/09 02:55:55;;;;;;;;;;;5.20;99.90;;;;;;5094936;28;19924;-56
2023/04/09 02:58:21;;;;;;;;;;;5.10;99.90;;;;;;5095007;28;19912;-56
2023/04/09 03:00:47;;;;;;;;;;;5.00;99.90;;;;;;5076866;28;20340;-56
2023/04/09 03:03:12;;;;;;;;;;;5.10;99.90;;;;;;5076810;28;19912;-56
2023/04/09 03:05:38;;;;;;;;;;;5.10;99.90;;;;;;5094776;28;20324;-56
2023/04/09 03:08:04;;;;;;;;;;;5.10;99.90;;;;;;5094724;28;19923;-56
2023/04/09 03:10:30;;;;;;;;;;;5.00;99.90;;;;;;5076670;28;19912;-56
2023/04/09 03:12:56;;;;;;;;;;;5.00;99.90;;;;;;5077050;28;20281;-56
2023/04/09 03:15:22;;;;;;;;;;;4.80;99.90;;;;;;5094764;28;20390;-56
2023/04/09 03:17:47;;;;;;;;;;;4.80;99.90;;;;;;5097710;28;20018;-56
2023/04/09 03:20:13;;;;;;;;;;;4.70;99.90;;;;;;5098797;28;19944;-56
2023/04/09 03:22:39;;;;;;;;;;;4.80;99.90;;;;;;5098759;28;19997;-56
2023/04/09 03:25:28;;;;;;;;;;;4.80;99.90;;;;;;5092912;28;19916;-57
2023/04/09 03:27:54;;;;;;;;;;;4.70;99.90;;;;;;5080493;28;19912;-56
2023/04/09 03:30:34;;;;;;;;;;;4.70;99.90;;;;;;5080391;28;20284;-56
2023/04/09 03:33:02;;;;;;;;;;;4.70;99.90;;;;;;5080377;28;19916;-56
2023/04/09 03:35:32;;;;;;;;;;;4.60;99.90;;;;;;5080381;28;20330;-56
2023/04/09 03:37:59;;;;;;;;;;;4.60;99.90;;;;;;5080294;28;19912;-56
2023/04/09 03:40:25;;;;;;;;;;;4.60;99.90;;;;;;5080328;28;19940;-56
2023/04/09 03:42:51;;;;;;;;;;;4.60;99.90;;;;;;5080151;28;19962;-56
2023/04/09 03:45:17;;;;;;;;;;;4.60;99.90;;;;;;5079976;28;20408;-56
2023/04/09 03:47:46;;;;;;;;;;;4.80;99.90;;;;;;5080230;28;19923;-56
2023/04/09 03:50:13;;;;;;;;;;;4.80;99.90;;;;;;5080146;28;20056;-56
2023/04/09 03:52:49;;;;;;;;;;;4.90;99.90;;;;;;5079987;28;19912;-56
2023/04/09 03:55:14;;;;;;;;;;;4.80;99.90;;;;;;5098116;28;19920;-56
2023/04/09 03:57:40;;;;;;;;;;;4.80;99.90;;;;;;5079919;28;20281;-56
2023/04/09 04:00:12;;;;;;;;;;;4.80;99.90;;;;;;5079834;28;20395;-56
2023/04/09 04:02:50;;;;;;;;;;;4.80;99.90;;;;;;5098368;28;19920;-56
2023/04/09 04:05:21;;;;;;;;;;;4.90;99.90;;;;;;5080607;28;19920;-56
2023/04/09 04:07:48;;;;;;;;;;;4.90;99.90;;;;;;5079894;28;20018;-56
2023/04/09 04:10:19;;;;;;;;;;;4.90;99.90;;;;;;5079505;28;19920;-56
2023/04/09 04:12:46;;;;;;;;;;;4.90;99.90;;;;;;5079641;28;19912;-56
2023/04/09 04:15:20;;;;;;;;;;;4.70;99.90;;;;;;5079702;28;19908;-56
2023/04/09 04:17:52;;;;;;;;;;;4.70;99.90;;;;;;5097709;28;19948;-56
2023/04/09 04:20:32;;;;;;;;;;;4.80;99.90;;;;;;5079523;28;19962;-56
2023/04/09 04:23:04;;;;;;;;;;;4.90;99.90;;;;;;5079348;28;19920;-56
2023/04/09 04:25:30;;;;;;;;;;;4.90;99.90;;;;;;5079667;28;19961;-56
2023/04/09 04:27:56;;;;;;;;;;;4.90;99.90;;;;;;5078889;28;19911;-56
2023/04/09 04:30:29;;;;;;;;;;;4.90;99.90;;;;;;5063717;28;19916;-56
2023/04/09 04:33:00;;;;;;;;;;;4.90;99.90;;;;;;5079270;28;19912;-56
2023/04/09 04:35:30;;;;;;;;;;;4.90;99.90;;;;;;5079012;28;19919;-56
2023/04/09 04:38:00;;;;;;;;;;;4.90;99.90;;;;;;5079285;28;19915;-56
2023/04/09 04:40:27;;;;;;;;;;;5.00;99.90;;;;;;5079236;28;19912;-56
2023/04/09 04:42:58;;;;;;;;;;;5.00;99.90;;;;;;5078982;28;19916;-56
2023/04/09 04:45:23;;;;;;;;;;;5.10;99.90;;;;;;5079185;28;19999;-56
2023/04/09 04:47:51;;;;;;;;;;;5.10;99.90;;;;;;5078855;28;19908;-56
2023/04/09 04:50:18;;;;;;;;;;;5.10;99.90;;;;;;5079052;28;19916;-56
2023/04/09 04:53:06;;;;;;;;;;;5.10;99.90;;;;;;5078986;28;19971;-56
2023/04/09 04:55:40;;;;;;;;;;;5.10;99.90;;;;;;5078698;28;20365;-56
2023/04/09 04:58:09;;;;;;;;;;;5.10;99.90;;;;;;5078909;28;19916;-56
2023/04/09 05:00:43;;;;;;;;;;;5.30;99.90;;;;;;5078820;28;19925;-56
2023/04/09 05:03:09;;;;;;;;;;;5.20;99.90;;;;;;5078758;28;19916;-56
2023/04/09 05:05:45;;;;;;;;;;;5.20;99.90;;;;;;5079544;28;19919;-56
2023/04/09 05:08:11;;;;;;;;;;;5.30;99.90;;;;;;5078592;28;20263;-56
2023/04/09 05:10:39;;;;;;;;;;;5.30;99.90;;;;;;5096751;28;19957;-56
2023/04/09 05:13:05;;;;;;;;;;;5.40;99.90;;;;;;5096694;28;19983;-56
2023/04/09 05:15:39;;;;;;;;;;;5.40;99.90;;;;;;5078540;28;20403;-56
2023/04/09 05:18:06;;;;;;;;;;;5.50;99.90;;;;;;5078312;28;20365;-56
2023/04/09 05:20:32;;;;;;;;;;;5.60;99.90;;;;;;5096587;28;19919;-56
2023/04/09 05:23:08;;;;;;;;;;;5.60;99.90;;;;;;5078219;28;19923;-56
2023/04/09 05:25:39;;;;;;;;;;;5.70;99.90;;;;;;5078144;28;20394;-56
2023/04/09 05:28:10;;;;;;;;;;;5.70;99.90;;;;;;5078380;28;19936;-56
2023/04/09 05:30:36;;;;;;;;;;;5.70;99.90;;;;;;5078047;28;19954;-56
2023/04/09 05:33:03;;;;;;;;;;;5.70;99.90;;;;;;5078088;28;20018;-56
2023/04/09 05:35:30;;;;;;;;;;;5.70;99.90;;;;;;5078082;28;19913;-56
2023/04/09 05:37:56;;;;;;;;;;;5.80;99.90;;;;;;5077948;28;19908;-56
2023/04/09 05:40:22;;;;;;;;;;;5.80;99.90;;;;;;5095393;28;20346;-56
2023/04/09 05:42:49;;;;;;;;;;;5.90;99.90;;;;;;5077911;28;19920;-56
2023/04/09 05:45:34;;;;;;;;;;;5.90;99.90;;;;;;5077847;28;19915;-56
2023/04/09 05:48:00;;;;;;;;;;;6.00;99.90;;;;;;5077877;28;19912;-56
2023/04/09 05:50:26;;;;;;;;;;;6.00;99.90;;;;;;5095946;28;20277;-57
2023/04/09 05:52:54;;;;;;;;;;;6.10;99.90;;;;;;5077729;28;19909;-56
2023/04/09 05:55:20;;;;;;;;;;;6.20;99.90;;;;;;5077676;28;20365;-56
2023/04/09 05:57:54;;;;;;;;;;;6.10;99.90;;;;;;5077111;28;20215;-56
2023/04/09 06:00:20;;;;;;;;;;;6.20;99.90;;;;;;5077414;28;19935;-56
2023/04/09 06:02:48;;;;;;;;;;;6.20;99.90;;;;;;5077461;28;20022;-56
2023/04/09 06:05:13;;;;;;;;;;;6.40;99.90;;;;;;5095592;28;20373;-56
2023/04/09 06:07:39;;;;;;;;;;;6.50;99.90;;;;;;5095656;28;19908;-56
2023/04/09 06:10:06;;;;;;;;;;;6.50;99.90;;;;;;5095579;28;19923;-56
2023/04/09 06:12:34;;;;;;;;;;;6.70;99.90;;;;;;5095606;28;19916;-56
2023/04/09 06:14:59;;;;;;;;;;;6.70;99.90;;;;;;5077272;28;19967;-56
2023/04/09 06:17:27;;;;;;;;;;;6.80;99.90;;;;;;5077368;28;19912;-56
2023/04/09 06:19:53;;;;;;;;;;;6.80;99.90;;;;;;5095468;28;20255;-56
2023/04/09 06:22:19;;;;;;;;;;;6.70;99.90;;;;;;5095268;28;20009;-56
2023/04/09 06:24:44;;;;;;;;;;;6.80;99.90;;;;;;5095467;28;19965;-56
2023/04/09 06:27:10;;;;;;;;;;;6.90;99.90;;;;;;5095154;28;20011;-56
2023/04/09 06:29:36;;;;;;;;;;;7.00;99.90;;;;;;5095288;28;20378;-56
2023/04/09 06:32:02;;;;;;;;;;;7.10;99.90;;;;;;5095274;28;19912;-57
2023/04/09 06:34:28;;;;;;;;;;;7.20;99.90;;;;;;5095068;28;19947;-56
2023/04/09 06:36:54;;;;;;;;;;;7.20;99.90;;;;;;5095157;28;19915;-56
2023/04/09 06:39:20;;;;;;;;;;;7.30;99.90;;;;;;5095242;28;19912;-56
2023/04/09 06:41:46;;;;;;;;;;;7.40;99.90;;;;;;5094978;28;19912;-56
2023/04/09 06:44:30;;;;;;;;;;;7.30;99.90;;;;;;5076872;28;20349;-56
2023/04/09 06:46:56;;;;;;;;;;;7.30;99.90;;;;;;5095218;28;19912;-56
2023/04/09 06:49:21;;;;;;;;;;;7.30;99.90;;;;;;5094940;28;19912;-56
2023/04/09 06:51:47;;;;;;;;;;;7.40;99.90;;;;;;5094951;28;19938;-56
2023/04/09 06:54:13;;;;;;;;;;;7.40;99.90;;;;;;5094888;28;20277;-56
2023/04/09 06:56:39;;;;;;;;;;;7.50;99.90;;;;;;5094785;28;20460;-56
2023/04/09 06:59:05;;;;;;;;;;;7.60;99.90;;;;;;5094906;28;19912;-56
2023/04/09 07:01:30;;;;;;;;;;;7.70;99.90;;;;;;5094898;28;19912;-57
2023/04/09 07:03:56;;;;;;;;;;;7.90;99.90;;;;;;5094776;28;20263;-57
2023/04/09 07:06:22;;;;;;;;;;;7.90;99.90;;;;;;5094668;28;19939;-56
2023/04/09 07:08:47;;;;;;;;;;;7.90;99.90;;;;;;5094662;28;19938;-56
2023/04/09 07:11:15;;;;;;;;;;;8.00;99.90;;;;;;5094728;28;19912;-56
2023/04/09 07:13:41;;;;;;;;;;;7.90;99.90;;;;;;5094899;28;19919;-57
2023/04/09 07:16:07;;;;;;;;;;;8.00;99.90;;;;;;5094897;28;19916;-56
2023/04/09 07:18:33;;;;;;;;;;;8.10;99.90;;;;;;5094632;28;19919;-56
2023/04/09 07:20:59;;;;;;;;;;;8.20;99.90;;;;;;5094908;28;19916;-57
2023/04/09 07:23:25;;;;;;;;;;;8.30;99.90;;;;;;5094602;28;19920;-57
2023/04/09 07:25:50;;;;;;;;;;;8.50;99.90;;;;;;5094844;28;19953;-57
2023/04/09 07:28:16;;;;;;;;;;;8.30;99.90;;;;;;5094683;28;19912;-57
2023/04/09 07:30:42;;;;;;;;;;;8.30;99.90;;;;;;5094678;28;19912;-57
2023/04/09 07:33:08;;;;;;;;;;;8.50;99.90;;;;;;5094607;28;20021;-57
2023/04/09 07:35:34;;;;;;;;;;;8.60;99.90;;;;;;5094630;28;20007;-57
2023/04/09 07:37:59;;;;;;;;;;;8.60;99.90;;;;;;5094653;28;19960;-57
2023/04/09 07:40:25;;;;;;;;;;;8.80;99.90;;;;;;5094499;28;19915;-57
2023/04/09 07:42:52;;;;;;;;;;;8.90;99.90;;;;;;5094337;28;20373;-57
2023/04/09 07:45:18;;;;;;;;;;;8.90;99.90;;;;;;5094474;28;20177;-57
2023/04/09 07:47:44;;;;;;;;;;;9.10;99.90;;;;;;5094428;28;20001;-56
2023/04/09 07:50:10;;;;;;;;;;;9.20;99.90;;;;;;5094693;28;19969;-57
2023/04/09 07:52:36;;;;;;;;;;;9.20;99.90;;;;;;5094480;28;19912;-57
2023/04/09 07:55:02;;;;;;;;;;;9.30;99.90;;;;;;5094231;28;19930;-57
2023/04/09 07:57:30;;;;;;;;;;;9.20;99.90;;;;;;5094494;28;19958;-57
2023/04/09 07:59:56;;;;;;;;;;;9.50;99.90;;;;;;5094414;28;19912;-57
2023/04/09 08:02:22;;;;;;;;;;;9.70;99.90;;;;;;5094826;28;19912;-57
2023/04/09 08:04:48;;;;;;;;;;;10.00;99.90;;;;;;5097942;28;19916;-57
2023/04/09 08:07:14;;;;;;;;;;;10.20;99.90;;;;;;5097828;28;19980;-57
2023/04/09 08:09:40;;;;;;;;;;;10.40;99.90;;;;;;5097785;28;20372;-57
2023/04/09 08:12:06;;;;;;;;;;;10.50;99.90;;;;;;5097781;28;20011;-57
2023/04/09 08:14:31;;;;;;;;;;;10.70;99.90;;;;;;5097618;28;19923;-57
2023/04/09 08:16:58;;;;;;;;;;;10.90;99.90;;;;;;5098006;28;19920;-57
2023/04/09 08:19:24;;;;;;;;;;;11.20;99.90;;;;;;5098022;28;19912;-58
2023/04/09 08:21:50;;;;;;;;;;;11.30;99.90;;;;;;5097470;28;19927;-57
2023/04/09 08:24:16;;;;;;;;;;;11.50;99.90;;;;;;5097673;28;19913;-57
2023/04/09 08:26:42;;;;;;;;;;;11.80;99.90;;;;;;5097635;28;19963;-57
2023/04/09 08:29:09;;;;;;;;;;;11.40;99.90;;;;;;5097769;28;19959;-57
2023/04/09 08:31:38;;;;;;;;;;;11.80;99.90;;;;;;5097463;28;19993;-58
2023/04/09 08:34:04;;;;;;;;;;;11.90;99.90;;;;;;5097512;28;19912;-57
2023/04/09 08:36:30;;;;;;;;;;;11.50;99.90;;;;;;5097203;28;19959;-58
2023/04/09 08:38:56;;;;;;;;;;;11.80;99.90;;;;;;5097408;28;19934;-57
2023/04/09 08:41:27;;;;;;;;;;;12.10;99.90;;;;;;5097165;28;19939;-57
2023/04/09 08:43:53;;;;;;;;;;;12.30;99.90;;;;;;5097111;28;20334;-57
2023/04/09 08:46:19;;;;;;;;;;;12.10;99.90;;;;;;5097196;28;20497;-57
2023/04/09 08:48:46;;;;;;;;;;;12.20;99.90;;;;;;5097303;28;20407;-57
2023/04/09 08:51:15;;;;;;;;;;;12.20;99.90;;;;;;5097247;28;20239;-58
2023/04/09 08:53:55;;;;;;;;;;;12.10;99.90;;;;;;5096974;28;20339;-58
2023/04/09 08:56:21;;;;;;;;;;;11.90;99.90;;;;;;5096850;28;19916;-58
2023/04/09 08:58:47;;;;;;;;;;;11.60;99.90;;;;;;5096892;28;19919;-58
2023/04/09 09:01:22;;;;;;;;;;;11.70;99.90;;;;;;5096817;28;19908;-58
2023/04/09 09:04:07;;;;;;;;;;;11.50;99.90;;;;;;5096846;28;19927;-57
2023/04/09 09:06:33;;;;;;;;;;;11.50;99.90;;;;;;5096648;28;20401;-57
2023/04/09 09:09:05;;;;;;;;;;;11.30;99.90;;;;;;5096670;28;19912;-57
2023/04/09 09:11:32;;;;;;;;;;;11.20;99.90;;;;;;5096516;28;19913;-57
2023/04/09 09:14:07;;;;;;;;;;;11.10;99.90;;;;;;5096710;28;19999;-57
2023/04/09 09:16:38;;;;;;;;;;;11.10;99.90;;;;;;5096640;28;19912;-57
2023/04/09 09:19:04;;;;;;;;;;;10.60;99.90;;;;;;5096403;28;19912;-58
2023/04/09 09:21:30;;;;;;;;;;;10.60;99.90;;;;;;5096675;28;19930;-57
2023/04/09 09:23:56;;;;;;;;;;;10.60;99.90;;;;;;5096503;28;20365;-57
2023/04/09 09:26:26;;;;;;;;;;;10.70;99.90;;;;;;5096184;28;20328;-57
2023/04/09 09:28:52;;;;;;;;;;;10.80;99.90;;;;;;5096400;28;19920;-57
2023/04/09 09:31:19;;;;;;;;;;;10.90;99.90;;;;;;5096300;28;19916;-57
2023/04/09 09:33:45;;;;;;;;;;;11.00;99.90;;;;;;5096196;28;19912;-57
2023/04/09 09:36:11;;;;;;;;;;;11.00;99.90;;;;;;5096412;28;19998;-57
2023/04/09 09:38:51;;;;;;;;;;;11.10;99.90;;;;;;5096186;28;19912;-57
2023/04/09 09:41:17;;;;;;;;;;;11.10;99.90;;;;;;5095947;28;19912;-57
2023/04/09 09:43:43;;;;;;;;;;;11.10;99.90;;;;;;5095900;28;20297;-57
2023/04/09 09:46:10;;;;;;;;;;;11.10;99.90;;;;;;5096288;28;19919;-57
2023/04/09 09:48:35;;;;;;;;;;;11.20;99.90;;;;;;5095922;28;19962;-57
2023/04/09 09:51:02;;;;;;;;;;;11.20;99.90;;;;;;5096128;28;20448;-57
2023/04/09 09:53:30;;;;;;;;;;;11.20;99.90;;;;;;5077822;28;19912;-57
2023/04/09 09:55:57;;;;;;;;;;;11.20;99.90;;;;;;5095648;28;19920;-57
2023/04/09 09:58:25;;;;;;;;;;;11.20;99.90;;;;;;5095702;28;19920;-57
2023/04/09 10:00:51;;;;;;;;;;;11.00;99.90;;;;;;5095774;28;19912;-57
2023/04/09 10:03:22;;;;;;;;;;;10.90;99.90;;;;;;5095613;28;20270;-57
2023/04/09 10:05:48;;;;;;;;;;;11.00;99.90;;;;;;5095691;28;19916;-57
2023/04/09 10:08:14;;;;;;;;;;;10.90;99.90;;;;;;5095517;28;19912;-57
2023/04/09 10:10:41;;;;;;;;;;;10.80;99.90;;;;;;5095855;28;19912;-57
2023/04/09 10:13:11;;;;;;;;;;;10.90;99.90;;;;;;5095526;28;20277;-57
2023/04/09 10:15:37;;;;;;;;;;;10.80;99.90;;;;;;5095745;28;19990;-57
2023/04/09 10:18:03;;;;;;;;;;;10.80;99.90;;;;;;5095409;28;20004;-57
2023/04/09 10:20:36;;;;;;;;;;;10.80;99.90;;;;;;5095378;28;19915;-57
2023/04/09 10:23:05;;;;;;;;;;;10.80;99.90;;;;;;5095378;28;19920;-57
2023/04/09 10:25:31;;;;;;;;;;;10.70;99.90;;;;;;5095041;28;20266;-57
2023/04/09 10:28:01;;;;;;;;;;;10.70;99.90;;;;;;5095518;28;19918;-57
2023/04/09 10:30:33;;;;;;;;;;;10.70;99.90;;;;;;5095265;28;19912;-57
2023/04/09 10:33:15;;;;;;;;;;;10.70;99.90;;;;;;5095284;28;20273;-57
2023/04/09 10:35:42;;;;;;;;;;;10.60;99.90;;;;;;5095147;28;19916;-57
2023/04/09 10:38:09;;;;;;;;;;;10.60;99.90;;;;;;5095162;28;19980;-57
2023/04/09 10:40:39;;;;;;;;;;;10.50;99.90;;;;;;5095260;28;20007;-57
2023/04/09 10:43:05;;;;;;;;;;;10.50;99.90;;;;;;5095072;28;19916;-57
2023/04/09 10:45:40;;;;;;;;;;;10.50;99.90;;;;;;5094855;28;19919;-57
2023/04/09 10:48:15;;;;;;;;;;;10.40;99.90;;;;;;5095173;28;19969;-57
2023/04/09 10:50:43;;;;;;;;;;;10.30;99.90;;;;;;5095047;28;19950;-57
2023/04/09 10:53:20;;;;;;;;;;;10.20;99.90;;;;;;5095298;28;19912;-57
2023/04/09 10:55:52;;;;;;;;;;;10.10;99.90;;;;;;5094835;28;19973;-57
2023/04/09 10:58:18;;;;;;;;;;;10.00;99.90;;;;;;5094993;28;19923;-57
2023/04/09 11:00:48;;;;;;;;;;;10.00;99.90;;;;;;5095124;28;19915;-57
2023/04/09 11:03:20;;;;;;;;;;;10.00;99.90;;;;;;5094945;28;19927;-57
2023/04/09 11:05:48;;;;;;;;;;;9.90;99.90;;;;;;5094636;28;19912;-57
2023/04/09 11:08:15;;;;;;;;;;;9.90;99.90;;;;;;5094609;28;19952;-57
2023/04/09 11:10:43;;;;;;;;;;;9.90;99.90;;;;;;5094917;28;19951;-57
2023/04/09 11:13:19;;;;;;;;;;;9.80;99.90;;;;;;5094688;28;19916;-57
2023/04/09 11:15:45;;;;;;;;;;;9.80;99.90;;;;;;5094929;28;19912;-57
2023/04/09 11:18:14;;;;;;;;;;;9.80;99.90;;;;;;5094910;28;20450;-57
2023/04/09 11:20:40;;;;;;;;;;;9.80;99.90;;;;;;5094536;28;20216;-57
2023/04/09 11:23:06;;;;;;;;;;;9.70;99.90;;;;;;5094688;28;20177;-58
2023/04/09 11:25:32;;;;;;;;;;;9.80;99.90;;;;;;5094734;28;19942;-57
2023/04/09 11:27:59;;;;;;;;;;;9.70;99.90;;;;;;5094616;28;19912;-57
2023/04/09 11:30:25;;;;;;;;;;;9.70;99.90;;;;;;5094857;28;19964;-57
2023/04/09 11:32:50;;;;;;;;;;;9.60;99.90;;;;;;5094561;28;19999;-57
2023/04/09 11:35:17;;;;;;;;;;;9.60;99.90;;;;;;5094541;28;20373;-57
2023/04/09 11:37:44;;;;;;;;;;;9.60;99.90;;;;;;5095983;28;20380;-57
2023/04/09 11:40:16;;;;;;;;;;;9.60;99.90;;;;;;5098698;28;19930;-57
2023/04/09 11:42:43;;;;;;;;;;;9.50;99.90;;;;;;5098301;28;20131;-57
2023/04/09 11:45:10;;;;;;;;;;;9.50;99.90;;;;;;5098594;28;19919;-57
2023/04/09 11:47:36;;;;;;;;;;;9.40;99.90;;;;;;5098304;28;19923;-57
2023/04/09 11:50:02;;;;;;;;;;;9.40;99.90;;;;;;5098361;28;19912;-57
2023/04/09 11:52:29;;;;;;;;;;;9.40;99.90;;;;;;5098343;28;19912;-57
2023/04/09 11:54:59;;;;;;;;;;;9.40;99.90;;;;;;5098081;28;19960;-57
2023/04/09 11:57:25;;;;;;;;;;;9.40;99.90;;;;;;5098161;28;20323;-57
2023/04/09 11:59:51;;;;;;;;;;;9.50;99.90;;;;;;5098091;28;19912;-57
2023/04/09 12:02:18;;;;;;;;;;;9.60;99.90;;;;;;5098076;28;19920;-57
2023/04/09 12:04:49;;;;;;;;;;;9.70;99.90;;;;;;5097826;28;19934;-57
2023/04/09 12:07:16;;;;;;;;;;;9.80;99.90;;;;;;5097982;28;19937;-57
2023/04/09 12:09:46;;;;;;;;;;;9.80;99.90;;;;;;5097826;28;19916;-57
2023/04/09 12:12:16;;;;;;;;;;;9.90;99.90;;;;;;5079983;28;19992;-57
2023/04/09 12:14:44;;;;;;;;;;;10.00;99.90;;;;;;5097986;28;19958;-57
2023/04/09 12:17:10;;;;;;;;;;;10.00;99.90;;;;;;5097691;28;20331;-57
2023/04/09 12:19:36;;;;;;;;;;;10.00;99.90;;;;;;5097718;28;19916;-57
2023/04/09 12:22:02;;;;;;;;;;;10.20;99.90;;;;;;5097636;28;20015;-57
2023/04/09 12:24:27;;;;;;;;;;;10.20;99.90;;;;;;5097531;28;19919;-57
2023/04/09 12:26:53;;;;;;;;;;;10.20;99.90;;;;;;5097733;28;19916;-57
2023/04/09 12:29:20;;;;;;;;;;;10.30;99.90;;;;;;5097520;28;19929;-57
2023/04/09 12:31:46;;;;;;;;;;;10.40;99.90;;;;;;5097482;28;20003;-57
2023/04/09 12:34:12;;;;;;;;;;;10.40;99.90;;;;;;5097595;28;20344;-57
2023/04/09 12:36:38;;;;;;;;;;;10.30;99.90;;;;;;5097761;28;19908;-57
2023/04/09 12:39:04;;;;;;;;;;;10.30;99.90;;;;;;5097319;28;19916;-57
2023/04/09 12:41:30;;;;;;;;;;;10.30;99.90;;;;;;5097472;28;19922;-57
2023/04/09 12:43:56;;;;;;;;;;;10.30;99.90;;;;;;5097382;28;19916;-57
2023/04/09 12:46:22;;;;;;;;;;;10.20;99.90;;;;;;5097023;28;20004;-57
2023/04/09 12:48:47;;;;;;;;;;;10.20;99.90;;;;;;5096881;28;19977;-57
2023/04/09 12:51:13;;;;;;;;;;;10.30;99.90;;;;;;5097155;28;19922;-57
2023/04/09 12:53:39;;;;;;;;;;;10.30;99.90;;;;;;5097102;28;19912;-58
2023/04/09 12:56:05;;;;;;;;;;;10.30;99.90;;;;;;5097103;28;20288;-57
2023/04/09 12:58:31;;;;;;;;;;;10.30;99.90;;;;;;5096978;28;19920;-57
2023/04/09 13:00:57;;;;;;;;;;;10.40;99.90;;;;;;5096760;28;19908;-57
2023/04/09 13:03:23;;;;;;;;;;;10.40;99.90;;;;;;5097154;28;19924;-57
2023/04/09 13:05:49;;;;;;;;;;;10.40;99.90;;;;;;5096570;28;19912;-57
2023/04/09 13:08:16;;;;;;;;;;;10.50;99.90;;;;;;5096647;28;19973;-57
2023/04/09 13:10:41;;;;;;;;;;;10.50;99.90;;;;;;5096693;28;20381;-57
2023/04/09 13:13:10;;;;;;;;;;;10.50;99.90;;;;;;5096653;28;19908;-57
2023/04/09 13:15:37;;;;;;;;;;;10.60;99.90;;;;;;5096965;28;20006;-57
2023/04/09 13:18:03;;;;;;;;;;;10.60;99.90;;;;;;5096725;28;20308;-57
2023/04/09 13:20:29;;;;;;;;;;;10.60;99.90;;;;;;5096486;28;19912;-57
2023/04/09 13:22:55;;;;;;;;;;;10.70;99.90;;;;;;5096362;28;19916;-57
2023/04/09 13:25:21;;;;;;;;;;;10.60;99.90;;;;;;5096603;28;19919;-57
2023/04/09 13:27:47;;;;;;;;;;;10.60;99.90;;;;;;5096402;28;20372;-57
2023/04/09 13:30:13;;;;;;;;;;;10.70;99.90;;;;;;5096370;28;19912;-57
2023/04/09 13:32:39;;;;;;;;;;;10.70;99.90;;;;;;5096811;28;19916;-57
2023/04/09 13:35:05;;;;;;;;;;;10.60;99.90;;;;;;5096125;28;20404;-57
2023/04/09 13:37:31;;;;;;;;;;;10.60;99.90;;;;;;5096338;28;19912;-57
2023/04/09 13:39:57;;;;;;;;;;;10.60;99.90;;;;;;5096442;28;19919;-57
2023/04/09 13:42:23;;;;;;;;;;;10.70;99.90;;;;;;5096218;28;19924;-57
2023/04/09 13:44:49;;;;;;;;;;;10.70;99.90;;;;;;5096118;28;19912;-57
2023/04/09 13:47:15;;;;;;;;;;;10.70;99.90;;;;;;5096377;28;19912;-57
2023/04/09 13:49:41;;;;;;;;;;;10.70;99.90;;;;;;5095904;28;19951;-57
2023/04/09 13:52:08;;;;;;;;;;;10.80;99.90;;;;;;5096072;28;19912;-57
2023/04/09 13:54:34;;;;;;;;;;;10.70;99.90;;;;;;5095897;28;20384;-57
2023/04/09 13:57:00;;;;;;;;;;;10.80;99.90;;;;;;5095682;28;19922;-57
2023/04/09 13:59:26;;;;;;;;;;;10.80;99.90;;;;;;5095929;28;19951;-57
2023/04/09 14:01:52;;;;;;;;;;;10.80;99.90;;;;;;5095327;28;20053;-57
2023/04/09 14:04:18;;;;;;;;;;;10.80;99.90;;;;;;5077483;28;19920;-57
2023/04/09 14:06:44;;;;;;;;;;;10.80;99.90;;;;;;5095704;28;19912;-57
2023/04/09 14:09:10;;;;;;;;;;;10.80;99.90;;;;;;5095644;28;19916;-57
2023/04/09 14:11:36;;;;;;;;;;;10.80;99.90;;;;;;5095845;28;19916;-57
2023/04/09 14:14:02;;;;;;;;;;;10.70;99.90;;;;;;5095809;28;19969;-57
2023/04/09 14:16:29;;;;;;;;;;;10.70;99.90;;;;;;5095740;28;19912;-57
2023/04/09 14:18:55;;;;;;;;;;;10.70;99.90;;;;;;5095467;28;20346;-57
2023/04/09 14:21:21;;;;;;;;;;;10.70;99.90;;;;;;5095575;28;19916;-57
2023/04/09 14:23:47;;;;;;;;;;;10.70;99.90;;;;;;5095557;28;19924;-57
2023/04/09 14:26:13;;;;;;;;;;;10.60;99.90;;;;;;5095199;28;19943;-57
2023/04/09 14:28:38;;;;;;;;;;;10.60;99.90;;;;;;5095449;28;19985;-57